createdAt,value
2022-08-16T00:01:45.076Z,54.55
2022-08-16T00:06:46.649Z,55.23
2022-08-16T00:11:48.169Z,54.78
2022-08-16T00:17:00.549Z,55.56
2022-08-16T00:22:13.634Z,55.34
2022-08-16T00:27:17.547Z,54.98
2022-08-16T00:32:19.190Z,55.32
2022-08-16T00:37:25.059Z,55.41
2022-08-16T00:42:46.395Z,55.02
2022-08-16T00:47:56.413Z,54.73
2022-08-16T00:52:58.125Z,55.16
2022-08-16T00:58:00.980Z,55.40
2022-08-16T01:03:03.494Z,54.98
2022-08-16T01:08:36.432Z,55.15
2022-08-16T01:13:29.120Z,54.29
2022-08-16T01:18:40.638Z,55.30
2022-08-16T01:24:53.418Z,55.50
2022-08-16T01:29:57.234Z,55.58
2022-08-16T01:35:00.745Z,55.70
2022-08-16T01:40:03.917Z,56.05
2022-08-16T01:45:09.049Z,56.09
2022-08-16T01:50:42.838Z,55.19
2022-08-16T01:55:35.403Z,54.98
2022-08-16T02:00:37.399Z,54.85
2022-08-16T02:05:40.775Z,54.72
2022-08-16T02:10:48.389Z,55.50
2022-08-16T02:15:50.583Z,55.09
2022-08-16T02:20:54.171Z,55.22
2022-08-16T02:25:55.692Z,55.63
2022-08-16T02:30:58.198Z,55.30
2022-08-16T02:36:00.121Z,55.34
2022-08-16T02:41:07.360Z,55.04
2022-08-16T02:46:11.472Z,55.18
2022-08-16T02:51:12.991Z,54.67
2022-08-16T02:56:15.981Z,55.30
2022-08-16T03:01:24.578Z,55.13
2022-08-16T03:06:38.911Z,54.79
2022-08-16T03:11:44.819Z,54.94
2022-08-16T03:16:59.238Z,54.83
2022-08-16T03:22:01.504Z,55.07
2022-08-16T03:27:03.193Z,55.22
2022-08-16T03:32:04.831Z,55.31
2022-08-16T03:37:06.719Z,55.58
2022-08-16T03:42:09.718Z,55.69
2022-08-16T03:47:11.737Z,55.87
2022-08-16T03:52:13.481Z,55.69
2022-08-16T03:57:15.718Z,56.13
2022-08-16T04:02:22.810Z,56.60
2022-08-16T04:07:33.750Z,56.77
2022-08-16T04:12:54.458Z,56.98
2022-08-16T04:17:57.846Z,56.98
2022-08-16T04:22:59.587Z,56.86
2022-08-16T04:28:54.593Z,56.61
2022-08-16T04:33:27.390Z,56.59
2022-08-16T04:38:30.452Z,57.11
2022-08-16T04:43:33.371Z,56.86
2022-08-16T04:48:34.993Z,57.23
2022-08-16T04:53:36.789Z,56.58
2022-08-16T04:58:46.018Z,56.96
2022-08-16T05:03:59.671Z,57.37
2022-08-16T05:09:02.642Z,57.36
2022-08-16T05:14:06.857Z,57.22
2022-08-16T05:19:11.791Z,56.87
2022-08-16T05:24:15.368Z,57.11
2022-08-16T05:29:57.357Z,57.14
2022-08-16T05:34:47.904Z,57.01
2022-08-16T05:39:55.428Z,57.47
2022-08-16T05:44:57.612Z,57.14
2022-08-16T05:49:59.204Z,57.24
2022-08-16T05:55:01.714Z,56.89
2022-08-16T06:00:09.093Z,56.85
2022-08-16T06:05:11.450Z,56.97
2022-08-16T06:10:31.922Z,57.01
2022-08-16T06:15:35.263Z,57.03
2022-08-16T06:20:38.069Z,56.33
2022-08-16T06:25:57.513Z,56.37
2022-08-16T06:31:01.358Z,56.27
2022-08-16T06:36:03.761Z,56.19
2022-08-16T06:41:05.790Z,56.42
2022-08-16T06:46:09.696Z,56.06
2022-08-16T06:51:11.502Z,56.17
2022-08-16T06:56:23.053Z,55.90
2022-08-16T07:01:43.231Z,55.88
2022-08-16T07:06:46.735Z,55.56
2022-08-16T07:11:52.188Z,55.89
2022-08-16T07:16:57.950Z,55.80
2022-08-16T07:22:02.338Z,55.25
2022-08-16T07:27:08.634Z,55.36
2022-08-16T07:32:14.035Z,55.30
2022-08-16T07:37:15.574Z,55.07
2022-08-16T07:42:25.907Z,54.81
2022-08-16T07:47:31.636Z,54.25
2022-08-16T07:52:34.186Z,53.86
2022-08-16T07:57:44.523Z,53.19
2022-08-16T08:02:57.230Z,52.46
2022-08-16T08:07:58.768Z,52.19
2022-08-16T08:13:01.823Z,52.38
2022-08-16T08:18:30.602Z,52.04
2022-08-16T08:23:27.608Z,51.45
2022-08-16T08:28:31.917Z,51.30
2022-08-16T08:33:34.033Z,50.62
2022-08-16T08:38:43.715Z,50.40
2022-08-16T08:43:47.314Z,50.29
2022-08-16T08:49:00.108Z,50.44
2022-08-16T08:54:09.262Z,50.50
2022-08-16T08:59:13.530Z,49.10
2022-08-16T09:04:21.469Z,49.54
2022-08-16T09:09:23.228Z,49.55
2022-08-16T09:14:25.094Z,49.64
2022-08-16T09:19:32.966Z,49.54
2022-08-16T09:24:52.759Z,49.13
2022-08-16T09:30:00.054Z,49.42
2022-08-16T09:35:03.019Z,48.36
2022-08-16T09:40:32.801Z,48.50
2022-08-16T09:45:29.059Z,47.79
2022-08-16T09:50:37.246Z,47.88
2022-08-16T09:55:44.551Z,48.15
2022-08-16T10:00:46.504Z,47.84
2022-08-16T10:05:48.466Z,47.86
2022-08-16T10:11:09.536Z,47.75
2022-08-16T10:21:16.577Z,47.63
2022-08-16T10:27:03.784Z,47.04
2022-08-16T10:31:45.291Z,47.45
2022-08-16T10:36:48.219Z,46.96
2022-08-16T10:41:55.898Z,46.81
2022-08-16T10:46:57.448Z,46.58
2022-08-16T10:52:01.317Z,46.42
2022-08-16T10:57:05.239Z,46.09
2022-08-16T11:02:57.793Z,45.89
2022-08-16T11:07:43.335Z,45.27
2022-08-16T11:12:46.704Z,45.25
2022-08-16T11:18:48.297Z,44.48
2022-08-16T11:23:11.972Z,43.56
2022-08-16T11:29:12.412Z,43.65
2022-08-16T11:33:55.186Z,42.90
2022-08-16T11:39:00.212Z,42.89
2022-08-16T11:44:02.847Z,41.88
2022-08-16T11:49:08.635Z,40.89
2022-08-16T11:54:20.526Z,42.82
2022-08-16T11:59:24.403Z,40.91
2022-08-16T12:04:30.387Z,40.71
2022-08-16T12:09:31.943Z,40.54
2022-08-16T12:14:35.311Z,39.58
2022-08-16T12:19:39.151Z,39.85
2022-08-16T12:24:40.701Z,39.76
2022-08-16T12:29:44.799Z,38.80
2022-08-16T12:34:50.516Z,38.60
2022-08-16T12:39:56.102Z,38.69
2022-08-16T12:44:57.782Z,38.33
2022-08-16T12:49:59.965Z,37.83
2022-08-16T12:55:01.946Z,36.80
2022-08-16T13:00:12.719Z,37.89
2022-08-16T13:05:28.723Z,39.05
2022-08-16T13:10:38.030Z,39.64
2022-08-16T13:15:51.705Z,38.38
2022-08-16T13:21:01.281Z,39.55
2022-08-16T13:26:05.258Z,40.79
2022-08-16T13:31:09.417Z,42.05
2022-08-16T13:36:21.345Z,40.44
2022-08-16T13:41:33.644Z,40.07
2022-08-16T13:46:35.422Z,39.69
2022-08-16T13:51:39.196Z,40.61
2022-08-16T13:56:41.371Z,41.01
2022-08-16T14:01:43.083Z,41.11
2022-08-16T14:06:46.712Z,41.74
2022-08-16T14:11:49.477Z,43.32
2022-08-16T14:16:55.081Z,42.34
2022-08-16T14:22:14.842Z,42.24
2022-08-16T14:27:21.355Z,42.85
2022-08-16T14:32:33.069Z,43.19
2022-08-16T14:37:35.810Z,44.05
2022-08-16T14:42:37.409Z,45.09
2022-08-16T14:47:39.019Z,45.86
2022-08-16T14:52:55.173Z,47.05
2022-08-16T14:57:58.341Z,45.57
2022-08-16T15:03:00.753Z,53.18
2022-08-16T15:08:03.998Z,48.76
2022-08-16T15:13:06.634Z,47.16
2022-08-16T15:18:11.815Z,47.68
2022-08-16T15:23:13.909Z,46.45
2022-08-16T15:28:31.121Z,46.43
2022-08-16T15:33:35.155Z,47.12
2022-08-16T15:39:02.499Z,47.47
2022-08-16T15:44:03.562Z,47.03
2022-08-16T15:49:13.652Z,47.27
2022-08-16T15:54:20.913Z,47.78
2022-08-16T15:59:48.644Z,47.69
2022-08-16T16:04:51.727Z,47.75
2022-08-16T16:09:55.477Z,48.33
2022-08-16T16:15:00.525Z,48.81
2022-08-16T16:20:02.828Z,49.15
2022-08-16T16:25:04.660Z,49.47
2022-08-16T16:30:33.590Z,50.29
2022-08-16T16:35:28.528Z,50.19
2022-08-16T16:40:35.357Z,51.21
2022-08-16T16:45:37.268Z,51.38
2022-08-16T16:50:39.389Z,51.49
2022-08-16T16:55:40.992Z,52.50
2022-08-16T17:00:42.733Z,52.94
2022-08-16T17:06:00.206Z,52.15
2022-08-16T17:11:04.883Z,52.30
2022-08-16T17:16:18.990Z,52.80
2022-08-16T17:21:21.636Z,53.00
2022-08-16T17:26:30.264Z,53.48
2022-08-16T17:31:40.614Z,53.30
2022-08-16T17:36:45.281Z,52.72
2022-08-16T17:41:56.882Z,53.21
2022-08-16T17:46:58.399Z,53.15
2022-08-16T17:52:00.020Z,54.19
2022-08-16T17:57:01.533Z,54.62
2022-08-16T18:02:42.051Z,54.78
2022-08-16T18:07:24.883Z,55.29
2022-08-16T18:12:50.704Z,56.06
2022-08-16T18:17:53.114Z,56.35
2022-08-16T18:22:54.667Z,55.70
2022-08-16T18:27:56.245Z,56.28
2022-08-16T18:32:57.800Z,56.55
2022-08-16T18:37:59.378Z,57.10
2022-08-16T18:43:03.263Z,56.49
2022-08-16T18:48:05.604Z,56.93
2022-08-16T18:53:08.155Z,57.38
2022-08-16T18:58:09.778Z,57.94
2022-08-16T19:03:25.660Z,56.49
2022-08-16T19:08:27.241Z,56.75
2022-08-16T19:13:29.066Z,57.75
2022-08-16T19:18:36.663Z,57.90
2022-08-16T19:23:39.043Z,57.43
2022-08-16T19:28:58.159Z,58.54
2022-08-16T19:34:01.593Z,58.61
2022-08-16T19:39:06.099Z,58.30
2022-08-16T19:44:07.735Z,58.58
2022-08-16T19:49:09.264Z,57.66
2022-08-16T19:54:10.879Z,58.77
2022-08-16T19:59:20.082Z,58.56
2022-08-16T20:04:23.120Z,58.07
2022-08-16T20:09:24.583Z,56.35
2022-08-16T20:14:26.702Z,57.77
2022-08-16T20:19:29.149Z,57.55
2022-08-16T20:24:35.266Z,57.57
2022-08-16T20:29:38.416Z,58.77
2022-08-16T20:34:41.462Z,58.50
2022-08-16T20:39:47.069Z,58.96
2022-08-16T20:44:48.630Z,59.54
2022-08-16T20:49:50.680Z,58.90
2022-08-16T20:54:52.436Z,59.68
2022-08-16T20:59:53.823Z,58.74
2022-08-16T21:04:55.736Z,59.55
2022-08-16T21:09:57.317Z,60.61
2022-08-16T21:15:04.076Z,58.43
2022-08-16T21:20:06.071Z,57.43
2022-08-16T21:25:10.702Z,57.36
2022-08-16T21:30:12.995Z,57.61
2022-08-16T21:35:18.233Z,58.65
2022-08-16T21:40:19.790Z,57.91
2022-08-16T21:45:21.315Z,58.13
2022-08-16T21:50:22.864Z,57.64
2022-08-16T21:55:26.360Z,57.86
2022-08-16T22:00:28.143Z,57.73
2022-08-16T22:05:30.055Z,57.37
2022-08-16T22:11:06.632Z,57.41
2022-08-16T22:15:54.040Z,57.92
2022-08-16T22:20:55.665Z,57.36
2022-08-16T22:25:57.450Z,57.35
2022-08-16T22:30:58.822Z,56.43
2022-08-16T22:36:00.581Z,56.94
2022-08-16T22:41:05.132Z,56.71
2022-08-16T22:46:06.859Z,56.87
2022-08-16T22:51:08.249Z,55.38
2022-08-16T22:56:09.789Z,56.90
2022-08-16T23:01:12.128Z,56.87
2022-08-16T23:06:13.894Z,56.40
2022-08-16T23:11:20.958Z,56.40
2022-08-16T23:16:33.251Z,55.50
2022-08-16T23:21:36.961Z,57.24
2022-08-16T23:26:47.670Z,57.76
2022-08-16T23:31:50.164Z,57.92
2022-08-16T23:36:55.347Z,58.55
2022-08-16T23:41:56.972Z,58.45
2022-08-16T23:46:58.961Z,58.15
2022-08-16T23:52:07.630Z,58.62
2022-08-16T23:57:09.159Z,58.71
